sensor_id;sensor_type;location;lat;lon;timestamp;P1;durP1;ratioP1;P2;durP2;ratioP2
43998;SDS011;51319;52.162;5.302;2022-10-30T00:00:16;26.60;;;9.90;;
43998;SDS011;51319;52.162;5.302;2022-10-30T00:02:44;19.70;;;8.95;;
43998;SDS011;51319;52.162;5.302;2022-10-30T00:05:11;19.83;;;7.95;;
43998;SDS011;51319;52.162;5.302;2022-10-30T00:07:38;18.10;;;8.77;;
43998;SDS011;51319;52.162;5.302;2022-10-30T00:10:04;22.27;;;9.20;;
43998;SDS011;51319;52.162;5.302;2022-10-30T00:12:31;23.52;;;8.85;;
43998;SDS011;51319;52.162;5.302;2022-10-30T00:14:57;23.02;;;8.93;;
43998;SDS011;51319;52.162;5.302;2022-10-30T00:17:24;28.58;;;9.15;;
43998;SDS011;51319;52.162;5.302;2022-10-30T00:19:50;26.23;;;8.63;;
43998;SDS011;51319;52.162;5.302;2022-10-30T00:22:16;28.58;;;9.98;;
43998;SDS011;51319;52.162;5.302;2022-10-30T00:24:45;28.58;;;9.65;;
43998;SDS011;51319;52.162;5.302;2022-10-30T00:27:11;21.85;;;8.95;;
43998;SDS011;51319;52.162;5.302;2022-10-30T00:29:39;18.00;;;9.10;;
43998;SDS011;51319;52.162;5.302;2022-10-30T00:32:05;25.35;;;10.18;;
43998;SDS011;51319;52.162;5.302;2022-10-30T00:34:31;36.03;;;12.82;;
43998;SDS011;51319;52.162;5.302;2022-10-30T00:36:57;27.27;;;12.00;;
43998;SDS011;51319;52.162;5.302;2022-10-30T00:39:23;29.13;;;12.13;;
43998;SDS011;51319;52.162;5.302;2022-10-30T00:41:49;29.52;;;11.77;;
43998;SDS011;51319;52.162;5.302;2022-10-30T00:44:32;29.67;;;11.88;;
43998;SDS011;51319;52.162;5.302;2022-10-30T00:47:14;31.17;;;11.95;;
43998;SDS011;51319;52.162;5.302;2022-10-30T00:49:46;24.08;;;11.80;;
43998;SDS011;51319;52.162;5.302;2022-10-30T00:52:16;27.25;;;10.32;;
43998;SDS011;51319;52.162;5.302;2022-10-30T00:54:43;26.60;;;10.40;;
43998;SDS011;51319;52.162;5.302;2022-10-30T00:57:09;27.40;;;10.55;;
43998;SDS011;51319;52.162;5.302;2022-10-30T00:59:35;26.30;;;10.38;;
43998;SDS011;51319;52.162;5.302;2022-10-30T01:02:02;22.08;;;9.75;;
43998;SDS011;51319;52.162;5.302;2022-10-30T01:04:32;24.85;;;9.88;;
43998;SDS011;51319;52.162;5.302;2022-10-30T01:07:04;30.30;;;9.52;;
43998;SDS011;51319;52.162;5.302;2022-10-30T01:09:35;29.08;;;9.70;;
43998;SDS011;51319;52.162;5.302;2022-10-30T01:12:03;23.38;;;8.95;;
43998;SDS011;51319;52.162;5.302;2022-10-30T01:14:29;25.63;;;10.30;;
43998;SDS011;51319;52.162;5.302;2022-10-30T01:27:38;21.88;;;9.10;;
43998;SDS011;51319;52.162;5.302;2022-10-30T01:38:20;23.50;;;9.73;;
43998;SDS011;51319;52.162;5.302;2022-10-30T01:40:57;27.95;;;9.32;;
43998;SDS011;51319;52.162;5.302;2022-10-30T01:43:23;19.00;;;8.02;;
43998;SDS011;51319;52.162;5.302;2022-10-30T01:49:10;31.75;;;10.02;;
43998;SDS011;51319;52.162;5.302;2022-10-30T01:52:15;29.75;;;9.23;;
43998;SDS011;51319;52.162;5.302;2022-10-30T01:54:55;29.38;;;10.13;;
43998;SDS011;51319;52.162;5.302;2022-10-30T02:00:57;26.52;;;9.55;;
43998;SDS011;51319;52.162;5.302;2022-10-30T02:03:39;28.27;;;9.77;;
43998;SDS011;51319;52.162;5.302;2022-10-30T02:06:20;27.70;;;10.55;;
43998;SDS011;51319;52.162;5.302;2022-10-30T02:09:00;27.45;;;9.52;;
43998;SDS011;51319;52.162;5.302;2022-10-30T02:11:41;26.95;;;9.95;;
43998;SDS011;51319;52.162;5.302;2022-10-30T02:14:10;20.85;;;10.77;;
43998;SDS011;51319;52.162;5.302;2022-10-30T02:16:40;32.05;;;10.20;;
43998;SDS011;51319;52.162;5.302;2022-10-30T02:19:10;28.10;;;11.23;;
43998;SDS011;51319;52.162;5.302;2022-10-30T02:21:39;30.83;;;10.80;;
43998;SDS011;51319;52.162;5.302;2022-10-30T02:24:05;26.40;;;10.93;;
43998;SDS011;51319;52.162;5.302;2022-10-30T02:26:31;21.55;;;10.00;;
43998;SDS011;51319;52.162;5.302;2022-10-30T02:28:57;28.75;;;10.27;;
43998;SDS011;51319;52.162;5.302;2022-10-30T02:31:23;25.20;;;11.15;;
43998;SDS011;51319;52.162;5.302;2022-10-30T02:33:49;30.65;;;11.20;;
43998;SDS011;51319;52.162;5.302;2022-10-30T02:36:15;22.23;;;10.13;;
43998;SDS011;51319;52.162;5.302;2022-10-30T02:38:42;29.63;;;10.10;;
43998;SDS011;51319;52.162;5.302;2022-10-30T02:41:09;24.23;;;11.45;;
43998;SDS011;51319;52.162;5.302;2022-10-30T02:43:35;27.73;;;10.88;;
43998;SDS011;51319;52.162;5.302;2022-10-30T02:46:02;30.40;;;10.82;;
43998;SDS011;51319;52.162;5.302;2022-10-30T02:48:31;26.35;;;10.35;;
43998;SDS011;51319;52.162;5.302;2022-10-30T02:50:58;24.17;;;10.25;;
43998;SDS011;51319;52.162;5.302;2022-10-30T02:53:25;25.15;;;9.45;;
43998;SDS011;51319;52.162;5.302;2022-10-30T02:55:51;29.45;;;10.70;;
43998;SDS011;51319;52.162;5.302;2022-10-30T02:58:18;29.77;;;11.52;;
43998;SDS011;51319;52.162;5.302;2022-10-30T03:00:44;25.15;;;10.90;;
43998;SDS011;51319;52.162;5.302;2022-10-30T03:03:10;26.33;;;10.38;;
43998;SDS011;51319;52.162;5.302;2022-10-30T03:05:36;21.88;;;10.75;;
43998;SDS011;51319;52.162;5.302;2022-10-30T03:08:02;23.85;;;10.90;;
43998;SDS011;51319;52.162;5.302;2022-10-30T03:10:29;29.27;;;11.45;;
43998;SDS011;51319;52.162;5.302;2022-10-30T03:12:57;27.20;;;10.85;;
43998;SDS011;51319;52.162;5.302;2022-10-30T03:15:23;25.20;;;11.10;;
43998;SDS011;51319;52.162;5.302;2022-10-30T03:17:49;29.85;;;11.15;;
43998;SDS011;51319;52.162;5.302;2022-10-30T03:20:17;26.20;;;10.68;;
43998;SDS011;51319;52.162;5.302;2022-10-30T03:22:43;30.13;;;11.57;;
43998;SDS011;51319;52.162;5.302;2022-10-30T03:25:10;26.85;;;11.43;;
43998;SDS011;51319;52.162;5.302;2022-10-30T03:27:36;31.90;;;11.82;;
43998;SDS011;51319;52.162;5.302;2022-10-30T03:30:02;20.73;;;11.82;;
43998;SDS011;51319;52.162;5.302;2022-10-30T03:32:28;32.42;;;12.32;;
43998;SDS011;51319;52.162;5.302;2022-10-30T03:34:54;25.23;;;11.40;;
43998;SDS011;51319;52.162;5.302;2022-10-30T03:37:21;31.63;;;12.07;;
43998;SDS011;51319;52.162;5.302;2022-10-30T03:39:47;30.70;;;12.02;;
43998;SDS011;51319;52.162;5.302;2022-10-30T03:42:13;21.25;;;12.30;;
43998;SDS011;51319;52.162;5.302;2022-10-30T03:44:39;26.10;;;11.25;;
43998;SDS011;51319;52.162;5.302;2022-10-30T03:47:05;32.33;;;12.50;;
43998;SDS011;51319;52.162;5.302;2022-10-30T03:49:31;24.10;;;11.27;;
43998;SDS011;51319;52.162;5.302;2022-10-30T03:51:57;27.13;;;10.82;;
43998;SDS011;51319;52.162;5.302;2022-10-30T03:54:23;22.05;;;11.02;;
43998;SDS011;51319;52.162;5.302;2022-10-30T03:56:49;22.38;;;11.43;;
43998;SDS011;51319;52.162;5.302;2022-10-30T03:59:15;28.80;;;10.98;;
43998;SDS011;51319;52.162;5.302;2022-10-30T04:01:41;35.13;;;11.60;;
43998;SDS011;51319;52.162;5.302;2022-10-30T04:04:08;29.83;;;12.60;;
43998;SDS011;51319;52.162;5.302;2022-10-30T04:06:34;33.00;;;12.48;;
43998;SDS011;51319;52.162;5.302;2022-10-30T04:09:00;32.78;;;13.45;;
43998;SDS011;51319;52.162;5.302;2022-10-30T04:11:26;31.35;;;12.90;;
43998;SDS011;51319;52.162;5.302;2022-10-30T04:13:52;30.98;;;12.45;;
43998;SDS011;51319;52.162;5.302;2022-10-30T04:16:18;27.17;;;11.52;;
43998;SDS011;51319;52.162;5.302;2022-10-30T04:18:44;32.55;;;12.85;;
43998;SDS011;51319;52.162;5.302;2022-10-30T04:21:10;35.60;;;12.40;;
43998;SDS011;51319;52.162;5.302;2022-10-30T04:23:36;28.02;;;12.38;;
43998;SDS011;51319;52.162;5.302;2022-10-30T04:26:02;33.65;;;14.00;;
43998;SDS011;51319;52.162;5.302;2022-10-30T04:28:29;36.92;;;13.82;;
43998;SDS011;51319;52.162;5.302;2022-10-30T04:30:55;26.58;;;13.43;;
43998;SDS011;51319;52.162;5.302;2022-10-30T04:33:21;29.05;;;12.40;;
43998;SDS011;51319;52.162;5.302;2022-10-30T04:35:47;28.63;;;12.70;;
43998;SDS011;51319;52.162;5.302;2022-10-30T04:38:13;31.10;;;13.85;;
43998;SDS011;51319;52.162;5.302;2022-10-30T04:40:40;28.90;;;13.57;;
43998;SDS011;51319;52.162;5.302;2022-10-30T04:43:10;30.90;;;13.70;;
43998;SDS011;51319;52.162;5.302;2022-10-30T04:45:38;34.67;;;14.07;;
43998;SDS011;51319;52.162;5.302;2022-10-30T04:48:05;36.38;;;14.52;;
43998;SDS011;51319;52.162;5.302;2022-10-30T04:50:39;42.95;;;15.18;;
43998;SDS011;51319;52.162;5.302;2022-10-30T04:53:06;38.42;;;13.95;;
43998;SDS011;51319;52.162;5.302;2022-10-30T04:55:36;34.22;;;14.38;;
43998;SDS011;51319;52.162;5.302;2022-10-30T04:58:03;25.95;;;14.20;;
43998;SDS011;51319;52.162;5.302;2022-10-30T05:00:29;34.10;;;14.15;;
43998;SDS011;51319;52.162;5.302;2022-10-30T05:03:02;36.72;;;14.68;;
43998;SDS011;51319;52.162;5.302;2022-10-30T05:05:29;29.73;;;13.98;;
43998;SDS011;51319;52.162;5.302;2022-10-30T05:07:55;27.77;;;13.57;;
43998;SDS011;51319;52.162;5.302;2022-10-30T05:10:22;40.38;;;14.82;;
43998;SDS011;51319;52.162;5.302;2022-10-30T05:12:50;31.85;;;14.13;;
43998;SDS011;51319;52.162;5.302;2022-10-30T05:15:17;33.65;;;13.98;;
43998;SDS011;51319;52.162;5.302;2022-10-30T05:17:45;43.42;;;15.48;;
43998;SDS011;51319;52.162;5.302;2022-10-30T05:20:15;37.53;;;14.55;;
43998;SDS011;51319;52.162;5.302;2022-10-30T05:22:44;37.60;;;14.57;;
43998;SDS011;51319;52.162;5.302;2022-10-30T05:25:10;26.98;;;14.40;;
43998;SDS011;51319;52.162;5.302;2022-10-30T05:27:36;39.35;;;15.50;;
43998;SDS011;51319;52.162;5.302;2022-10-30T05:30:02;35.10;;;14.35;;
43998;SDS011;51319;52.162;5.302;2022-10-30T05:32:28;28.33;;;15.07;;
43998;SDS011;51319;52.162;5.302;2022-10-30T05:34:54;33.85;;;15.98;;
43998;SDS011;51319;52.162;5.302;2022-10-30T05:37:21;34.00;;;17.15;;
43998;SDS011;51319;52.162;5.302;2022-10-30T05:39:47;40.78;;;16.73;;
43998;SDS011;51319;52.162;5.302;2022-10-30T05:42:13;35.58;;;17.08;;
43998;SDS011;51319;52.162;5.302;2022-10-30T05:44:39;37.92;;;15.60;;
43998;SDS011;51319;52.162;5.302;2022-10-30T05:47:25;43.28;;;15.73;;
43998;SDS011;51319;52.162;5.302;2022-10-30T05:49:51;28.45;;;14.35;;
43998;SDS011;51319;52.162;5.302;2022-10-30T05:52:17;34.63;;;16.05;;
43998;SDS011;51319;52.162;5.302;2022-10-30T05:54:43;33.40;;;15.13;;
43998;SDS011;51319;52.162;5.302;2022-10-30T05:57:09;32.97;;;14.40;;
43998;SDS011;51319;52.162;5.302;2022-10-30T05:59:36;36.90;;;16.10;;
43998;SDS011;51319;52.162;5.302;2022-10-30T06:02:02;32.92;;;15.35;;
43998;SDS011;51319;52.162;5.302;2022-10-30T06:04:28;27.52;;;14.65;;
43998;SDS011;51319;52.162;5.302;2022-10-30T06:06:54;36.35;;;15.73;;
43998;SDS011;51319;52.162;5.302;2022-10-30T06:09:20;28.98;;;15.60;;
43998;SDS011;51319;52.162;5.302;2022-10-30T06:11:46;32.55;;;17.15;;
43998;SDS011;51319;52.162;5.302;2022-10-30T06:14:12;30.92;;;14.10;;
43998;SDS011;51319;52.162;5.302;2022-10-30T06:16:38;43.60;;;17.35;;
43998;SDS011;51319;52.162;5.302;2022-10-30T06:19:04;39.13;;;17.15;;
43998;SDS011;51319;52.162;5.302;2022-10-30T06:21:30;40.53;;;15.73;;
43998;SDS011;51319;52.162;5.302;2022-10-30T06:23:56;41.65;;;16.83;;
43998;SDS011;51319;52.162;5.302;2022-10-30T06:26:23;33.33;;;15.35;;
43998;SDS011;51319;52.162;5.302;2022-10-30T06:28:49;40.65;;;17.52;;
43998;SDS011;51319;52.162;5.302;2022-10-30T06:31:15;31.95;;;15.50;;
43998;SDS011;51319;52.162;5.302;2022-10-30T06:33:41;34.60;;;15.85;;
43998;SDS011;51319;52.162;5.302;2022-10-30T06:36:10;31.30;;;16.15;;
43998;SDS011;51319;52.162;5.302;2022-10-30T06:38:37;43.10;;;15.93;;
43998;SDS011;51319;52.162;5.302;2022-10-30T06:41:03;32.13;;;15.02;;
43998;SDS011;51319;52.162;5.302;2022-10-30T06:43:29;36.90;;;16.15;;
43998;SDS011;51319;52.162;5.302;2022-10-30T06:45:58;37.25;;;15.82;;
43998;SDS011;51319;52.162;5.302;2022-10-30T06:48:24;42.15;;;17.17;;
43998;SDS011;51319;52.162;5.302;2022-10-30T06:50:54;41.60;;;18.70;;
43998;SDS011;51319;52.162;5.302;2022-10-30T06:53:21;41.85;;;17.52;;
43998;SDS011;51319;52.162;5.302;2022-10-30T06:55:57;38.28;;;17.25;;
43998;SDS011;51319;52.162;5.302;2022-10-30T06:58:27;40.00;;;17.40;;
43998;SDS011;51319;52.162;5.302;2022-10-30T07:00:54;39.03;;;17.23;;
43998;SDS011;51319;52.162;5.302;2022-10-30T07:03:20;38.65;;;17.58;;
43998;SDS011;51319;52.162;5.302;2022-10-30T07:05:47;38.25;;;16.98;;
43998;SDS011;51319;52.162;5.302;2022-10-30T07:08:13;36.63;;;16.17;;
43998;SDS011;51319;52.162;5.302;2022-10-30T07:10:39;45.35;;;16.63;;
43998;SDS011;51319;52.162;5.302;2022-10-30T07:13:05;34.35;;;15.13;;
43998;SDS011;51319;52.162;5.302;2022-10-30T07:15:31;42.55;;;16.55;;
43998;SDS011;51319;52.162;5.302;2022-10-30T07:18:00;36.47;;;16.23;;
43998;SDS011;51319;52.162;5.302;2022-10-30T07:20:29;41.88;;;15.57;;
43998;SDS011;51319;52.162;5.302;2022-10-30T07:22:58;34.55;;;16.83;;
43998;SDS011;51319;52.162;5.302;2022-10-30T07:25:25;41.42;;;16.50;;
43998;SDS011;51319;52.162;5.302;2022-10-30T07:27:52;35.00;;;16.02;;
43998;SDS011;51319;52.162;5.302;2022-10-30T07:30:20;35.17;;;15.82;;
43998;SDS011;51319;52.162;5.302;2022-10-30T07:33:02;35.33;;;15.82;;
43998;SDS011;51319;52.162;5.302;2022-10-30T07:35:30;35.38;;;15.15;;
43998;SDS011;51319;52.162;5.302;2022-10-30T07:38:04;34.50;;;14.83;;
43998;SDS011;51319;52.162;5.302;2022-10-30T07:40:31;43.40;;;16.17;;
43998;SDS011;51319;52.162;5.302;2022-10-30T07:42:59;30.45;;;14.60;;
43998;SDS011;51319;52.162;5.302;2022-10-30T07:45:27;35.90;;;15.30;;
43998;SDS011;51319;52.162;5.302;2022-10-30T07:47:54;36.33;;;13.73;;
43998;SDS011;51319;52.162;5.302;2022-10-30T07:50:21;26.42;;;13.88;;
43998;SDS011;51319;52.162;5.302;2022-10-30T07:52:48;29.35;;;13.55;;
43998;SDS011;51319;52.162;5.302;2022-10-30T07:55:15;30.60;;;13.05;;
43998;SDS011;51319;52.162;5.302;2022-10-30T07:57:41;36.00;;;12.95;;
43998;SDS011;51319;52.162;5.302;2022-10-30T08:00:09;27.50;;;13.15;;
43998;SDS011;51319;52.162;5.302;2022-10-30T08:02:37;27.45;;;12.93;;
43998;SDS011;51319;52.162;5.302;2022-10-30T08:05:04;23.92;;;13.25;;
43998;SDS011;51319;52.162;5.302;2022-10-30T08:07:31;23.05;;;12.57;;
43998;SDS011;51319;52.162;5.302;2022-10-30T08:09:59;26.45;;;12.88;;
43998;SDS011;51319;52.162;5.302;2022-10-30T08:12:26;22.00;;;12.35;;
43998;SDS011;51319;52.162;5.302;2022-10-30T08:14:52;32.88;;;13.40;;
43998;SDS011;51319;52.162;5.302;2022-10-30T08:17:19;21.85;;;11.55;;
43998;SDS011;51319;52.162;5.302;2022-10-30T08:19:45;38.75;;;13.65;;
43998;SDS011;51319;52.162;5.302;2022-10-30T08:22:12;22.48;;;12.07;;
43998;SDS011;51319;52.162;5.302;2022-10-30T08:24:38;24.10;;;11.85;;
43998;SDS011;51319;52.162;5.302;2022-10-30T08:27:04;23.15;;;11.20;;
43998;SDS011;51319;52.162;5.302;2022-10-30T08:29:31;25.77;;;10.55;;
43998;SDS011;51319;52.162;5.302;2022-10-30T08:31:59;21.95;;;10.63;;
43998;SDS011;51319;52.162;5.302;2022-10-30T08:34:25;23.70;;;10.50;;
43998;SDS011;51319;52.162;5.302;2022-10-30T08:36:52;22.77;;;10.32;;
43998;SDS011;51319;52.162;5.302;2022-10-30T08:39:18;25.92;;;9.35;;
43998;SDS011;51319;52.162;5.302;2022-10-30T08:41:45;32.55;;;14.35;;
43998;SDS011;51319;52.162;5.302;2022-10-30T08:44:11;24.88;;;9.23;;
43998;SDS011;51319;52.162;5.302;2022-10-30T08:46:37;22.30;;;9.65;;
43998;SDS011;51319;52.162;5.302;2022-10-30T08:49:03;30.58;;;10.50;;
43998;SDS011;51319;52.162;5.302;2022-10-30T08:51:33;24.77;;;10.88;;
43998;SDS011;51319;52.162;5.302;2022-10-30T08:53:59;28.92;;;9.80;;
43998;SDS011;51319;52.162;5.302;2022-10-30T08:56:26;22.38;;;9.55;;
43998;SDS011;51319;52.162;5.302;2022-10-30T08:58:52;30.15;;;8.73;;
43998;SDS011;51319;52.162;5.302;2022-10-30T09:01:18;23.80;;;9.15;;
43998;SDS011;51319;52.162;5.302;2022-10-30T09:03:44;23.23;;;8.18;;
43998;SDS011;51319;52.162;5.302;2022-10-30T09:06:11;16.35;;;8.20;;
43998;SDS011;51319;52.162;5.302;2022-10-30T09:08:37;23.05;;;9.45;;
43998;SDS011;51319;52.162;5.302;2022-10-30T09:11:03;27.52;;;9.32;;
43998;SDS011;51319;52.162;5.302;2022-10-30T09:13:29;18.85;;;10.02;;
43998;SDS011;51319;52.162;5.302;2022-10-30T09:15:59;21.73;;;9.23;;
43998;SDS011;51319;52.162;5.302;2022-10-30T09:18:26;22.80;;;9.93;;
43998;SDS011;51319;52.162;5.302;2022-10-30T09:20:53;21.27;;;9.73;;
43998;SDS011;51319;52.162;5.302;2022-10-30T09:23:20;23.08;;;9.70;;
43998;SDS011;51319;52.162;5.302;2022-10-30T09:25:46;23.70;;;9.63;;
43998;SDS011;51319;52.162;5.302;2022-10-30T09:28:12;17.85;;;9.30;;
43998;SDS011;51319;52.162;5.302;2022-10-30T09:30:38;22.50;;;9.57;;
43998;SDS011;51319;52.162;5.302;2022-10-30T09:33:04;24.25;;;8.48;;
43998;SDS011;51319;52.162;5.302;2022-10-30T09:35:31;24.58;;;8.25;;
43998;SDS011;51319;52.162;5.302;2022-10-30T09:37:59;20.85;;;8.52;;
43998;SDS011;51319;52.162;5.302;2022-10-30T09:40:32;18.40;;;7.82;;
43998;SDS011;51319;52.162;5.302;2022-10-30T09:46:12;17.88;;;7.65;;
43998;SDS011;51319;52.162;5.302;2022-10-30T09:51:39;17.05;;;6.60;;
43998;SDS011;51319;52.162;5.302;2022-10-30T09:54:22;16.75;;;6.70;;
43998;SDS011;51319;52.162;5.302;2022-10-30T09:57:03;19.45;;;6.82;;
43998;SDS011;51319;52.162;5.302;2022-10-30T10:02:36;15.82;;;6.40;;
43998;SDS011;51319;52.162;5.302;2022-10-30T10:05:10;19.38;;;6.72;;
43998;SDS011;51319;52.162;5.302;2022-10-30T10:07:43;18.70;;;6.72;;
43998;SDS011;51319;52.162;5.302;2022-10-30T10:10:18;19.45;;;6.28;;
43998;SDS011;51319;52.162;5.302;2022-10-30T10:12:45;20.00;;;7.20;;
43998;SDS011;51319;52.162;5.302;2022-10-30T10:21:12;23.38;;;6.45;;
43998;SDS011;51319;52.162;5.302;2022-10-30T10:24:03;24.08;;;7.15;;
43998;SDS011;51319;52.162;5.302;2022-10-30T10:51:43;16.52;;;6.20;;
43998;SDS011;51319;52.162;5.302;2022-10-30T10:54:15;13.60;;;5.47;;
43998;SDS011;51319;52.162;5.302;2022-10-30T10:56:48;16.58;;;5.57;;
43998;SDS011;51319;52.162;5.302;2022-10-30T10:59:24;21.70;;;5.85;;
43998;SDS011;51319;52.162;5.302;2022-10-30T11:02:02;19.25;;;5.78;;
43998;SDS011;51319;52.162;5.302;2022-10-30T11:05:05;20.08;;;8.52;;
43998;SDS011;51319;52.162;5.302;2022-10-30T11:07:47;15.63;;;6.20;;
43998;SDS011;51319;52.162;5.302;2022-10-30T11:10:16;12.60;;;5.35;;
43998;SDS011;51319;52.162;5.302;2022-10-30T11:12:44;25.55;;;6.50;;
43998;SDS011;51319;52.162;5.302;2022-10-30T11:15:18;18.63;;;6.25;;
43998;SDS011;51319;52.162;5.302;2022-10-30T11:23:45;16.67;;;6.43;;
43998;SDS011;51319;52.162;5.302;2022-10-30T11:31:24;19.73;;;5.32;;
43998;SDS011;51319;52.162;5.302;2022-10-30T11:33:54;13.88;;;5.65;;
43998;SDS011;51319;52.162;5.302;2022-10-30T11:36:21;15.88;;;6.07;;
43998;SDS011;51319;52.162;5.302;2022-10-30T11:38:52;22.00;;;6.32;;
43998;SDS011;51319;52.162;5.302;2022-10-30T11:41:22;16.73;;;5.75;;
43998;SDS011;51319;52.162;5.302;2022-10-30T11:43:50;15.50;;;5.90;;
43998;SDS011;51319;52.162;5.302;2022-10-30T11:46:20;21.55;;;5.82;;
43998;SDS011;51319;52.162;5.302;2022-10-30T11:48:47;28.20;;;6.22;;
43998;SDS011;51319;52.162;5.302;2022-10-30T11:54:17;17.23;;;5.45;;
43998;SDS011;51319;52.162;5.302;2022-10-30T11:56:46;21.90;;;5.93;;
43998;SDS011;51319;52.162;5.302;2022-10-30T11:59:17;23.58;;;6.45;;
43998;SDS011;51319;52.162;5.302;2022-10-30T12:02:02;14.40;;;5.80;;
43998;SDS011;51319;52.162;5.302;2022-10-30T12:04:44;16.70;;;6.22;;
43998;SDS011;51319;52.162;5.302;2022-10-30T12:09:48;15.23;;;5.80;;
43998;SDS011;51319;52.162;5.302;2022-10-30T12:12:28;19.75;;;5.75;;
43998;SDS011;51319;52.162;5.302;2022-10-30T12:15:07;20.95;;;6.03;;
43998;SDS011;51319;52.162;5.302;2022-10-30T12:17:54;20.02;;;6.65;;
43998;SDS011;51319;52.162;5.302;2022-10-30T12:20:24;16.83;;;6.75;;
43998;SDS011;51319;52.162;5.302;2022-10-30T12:22:52;19.17;;;6.85;;
43998;SDS011;51319;52.162;5.302;2022-10-30T12:25:25;16.30;;;5.45;;
43998;SDS011;51319;52.162;5.302;2022-10-30T12:28:03;25.20;;;6.35;;
43998;SDS011;51319;52.162;5.302;2022-10-30T12:30:36;17.48;;;5.60;;
43998;SDS011;51319;52.162;5.302;2022-10-30T12:33:13;21.75;;;7.10;;
43998;SDS011;51319;52.162;5.302;2022-10-30T12:39:01;17.38;;;6.57;;
43998;SDS011;51319;52.162;5.302;2022-10-30T12:41:42;24.70;;;6.65;;
43998;SDS011;51319;52.162;5.302;2022-10-30T12:44:20;20.45;;;6.82;;
43998;SDS011;51319;52.162;5.302;2022-10-30T12:50:00;19.60;;;6.85;;
43998;SDS011;51319;52.162;5.302;2022-10-30T12:52:35;29.90;;;7.82;;
43998;SDS011;51319;52.162;5.302;2022-10-30T12:55:14;18.33;;;6.60;;
43998;SDS011;51319;52.162;5.302;2022-10-30T12:57:46;20.45;;;7.95;;
43998;SDS011;51319;52.162;5.302;2022-10-30T13:00:32;24.45;;;5.95;;
43998;SDS011;51319;52.162;5.302;2022-10-30T13:06:16;23.05;;;7.10;;
43998;SDS011;51319;52.162;5.302;2022-10-30T13:11:36;20.45;;;6.30;;
43998;SDS011;51319;52.162;5.302;2022-10-30T13:14:11;52.50;;;30.30;;
43998;SDS011;51319;52.162;5.302;2022-10-30T13:16:44;21.20;;;9.45;;
43998;SDS011;51319;52.162;5.302;2022-10-30T13:19:30;22.13;;;9.85;;
43998;SDS011;51319;52.162;5.302;2022-10-30T13:22:02;17.17;;;6.53;;
43998;SDS011;51319;52.162;5.302;2022-10-30T13:24:46;22.85;;;7.13;;
43998;SDS011;51319;52.162;5.302;2022-10-30T13:30:18;21.08;;;6.53;;
43998;SDS011;51319;52.162;5.302;2022-10-30T13:44:00;20.70;;;7.03;;
43998;SDS011;51319;52.162;5.302;2022-10-30T13:47:02;21.92;;;6.88;;
43998;SDS011;51319;52.162;5.302;2022-10-30T13:52:36;25.67;;;7.45;;
43998;SDS011;51319;52.162;5.302;2022-10-30T13:55:28;27.73;;;7.13;;
43998;SDS011;51319;52.162;5.302;2022-10-30T14:11:35;27.08;;;7.25;;
43998;SDS011;51319;52.162;5.302;2022-10-30T14:14:44;20.52;;;7.28;;
43998;SDS011;51319;52.162;5.302;2022-10-30T14:22:23;27.27;;;7.63;;
43998;SDS011;51319;52.162;5.302;2022-10-30T14:24:50;25.98;;;8.07;;
43998;SDS011;51319;52.162;5.302;2022-10-30T14:27:18;23.98;;;7.97;;
43998;SDS011;51319;52.162;5.302;2022-10-30T14:29:50;17.73;;;7.43;;
43998;SDS011;51319;52.162;5.302;2022-10-30T14:34:44;23.75;;;8.02;;
43998;SDS011;51319;52.162;5.302;2022-10-30T14:39:48;21.83;;;8.30;;
43998;SDS011;51319;52.162;5.302;2022-10-30T14:45:11;17.98;;;7.72;;
43998;SDS011;51319;52.162;5.302;2022-10-30T14:55:29;24.38;;;9.65;;
43998;SDS011;51319;52.162;5.302;2022-10-30T14:58:21;22.58;;;9.82;;
43998;SDS011;51319;52.162;5.302;2022-10-30T15:15:15;34.03;;;14.50;;
43998;SDS011;51319;52.162;5.302;2022-10-30T15:17:54;25.10;;;11.30;;
43998;SDS011;51319;52.162;5.302;2022-10-30T15:20:24;20.85;;;7.88;;
43998;SDS011;51319;52.162;5.302;2022-10-30T15:22:56;24.30;;;7.82;;
43998;SDS011;51319;52.162;5.302;2022-10-30T15:25:28;21.10;;;9.00;;
43998;SDS011;51319;52.162;5.302;2022-10-30T15:27:59;23.55;;;8.07;;
43998;SDS011;51319;52.162;5.302;2022-10-30T15:30:27;23.75;;;9.10;;
43998;SDS011;51319;52.162;5.302;2022-10-30T15:32:54;25.23;;;8.93;;
43998;SDS011;51319;52.162;5.302;2022-10-30T15:35:24;25.65;;;8.00;;
43998;SDS011;51319;52.162;5.302;2022-10-30T15:38:09;23.20;;;7.93;;
43998;SDS011;51319;52.162;5.302;2022-10-30T15:40:36;20.90;;;7.88;;
43998;SDS011;51319;52.162;5.302;2022-10-30T15:43:04;29.75;;;9.05;;
43998;SDS011;51319;52.162;5.302;2022-10-30T15:45:37;23.97;;;8.23;;
43998;SDS011;51319;52.162;5.302;2022-10-30T15:53:33;18.95;;;7.82;;
43998;SDS011;51319;52.162;5.302;2022-10-30T15:56:02;31.52;;;8.85;;
43998;SDS011;51319;52.162;5.302;2022-10-30T15:58:40;23.67;;;9.10;;
43998;SDS011;51319;52.162;5.302;2022-10-30T16:01:29;24.92;;;10.43;;
43998;SDS011;51319;52.162;5.302;2022-10-30T16:03:57;21.98;;;8.63;;
43998;SDS011;51319;52.162;5.302;2022-10-30T16:06:25;25.70;;;10.23;;
43998;SDS011;51319;52.162;5.302;2022-10-30T16:08:53;26.55;;;11.65;;
43998;SDS011;51319;52.162;5.302;2022-10-30T16:11:20;29.85;;;10.93;;
43998;SDS011;51319;52.162;5.302;2022-10-30T16:13:48;22.88;;;9.95;;
43998;SDS011;51319;52.162;5.302;2022-10-30T16:16:25;17.90;;;8.93;;
43998;SDS011;51319;52.162;5.302;2022-10-30T16:18:56;26.13;;;10.57;;
43998;SDS011;51319;52.162;5.302;2022-10-30T16:21:28;24.65;;;11.80;;
43998;SDS011;51319;52.162;5.302;2022-10-30T16:23:56;24.17;;;10.23;;
43998;SDS011;51319;52.162;5.302;2022-10-30T16:26:36;17.52;;;8.10;;
43998;SDS011;51319;52.162;5.302;2022-10-30T16:31:42;23.88;;;7.35;;
43998;SDS011;51319;52.162;5.302;2022-10-30T16:34:24;25.42;;;8.23;;
43998;SDS011;51319;52.162;5.302;2022-10-30T16:37:05;22.70;;;8.45;;
43998;SDS011;51319;52.162;5.302;2022-10-30T16:39:36;18.13;;;8.68;;
43998;SDS011;51319;52.162;5.302;2022-10-30T16:42:03;21.92;;;8.88;;
43998;SDS011;51319;52.162;5.302;2022-10-30T16:47:21;27.00;;;10.80;;
43998;SDS011;51319;52.162;5.302;2022-10-30T16:49:56;27.20;;;10.55;;
43998;SDS011;51319;52.162;5.302;2022-10-30T16:52:28;26.63;;;8.57;;
43998;SDS011;51319;52.162;5.302;2022-10-30T16:55:00;26.15;;;10.02;;
43998;SDS011;51319;52.162;5.302;2022-10-30T16:57:36;23.15;;;7.28;;
43998;SDS011;51319;52.162;5.302;2022-10-30T17:00:06;18.15;;;7.28;;
43998;SDS011;51319;52.162;5.302;2022-10-30T17:03:06;21.38;;;8.40;;
43998;SDS011;51319;52.162;5.302;2022-10-30T17:05:35;70.57;;;35.70;;
43998;SDS011;51319;52.162;5.302;2022-10-30T17:08:03;28.45;;;13.65;;
43998;SDS011;51319;52.162;5.302;2022-10-30T17:10:53;43.88;;;24.27;;
43998;SDS011;51319;52.162;5.302;2022-10-30T17:13:39;38.38;;;17.35;;
43998;SDS011;51319;52.162;5.302;2022-10-30T17:16:24;28.88;;;9.98;;
43998;SDS011;51319;52.162;5.302;2022-10-30T17:18:53;21.67;;;9.15;;
43998;SDS011;51319;52.162;5.302;2022-10-30T17:21:40;22.40;;;7.63;;
43998;SDS011;51319;52.162;5.302;2022-10-30T17:24:24;25.50;;;10.65;;
43998;SDS011;51319;52.162;5.302;2022-10-30T17:26:56;28.17;;;9.80;;
43998;SDS011;51319;52.162;5.302;2022-10-30T17:32:05;49.72;;;30.15;;
43998;SDS011;51319;52.162;5.302;2022-10-30T17:34:45;46.83;;;28.38;;
43998;SDS011;51319;52.162;5.302;2022-10-30T17:37:12;41.53;;;28.50;;
43998;SDS011;51319;52.162;5.302;2022-10-30T17:39:38;23.25;;;11.73;;